NCAR-RAP Real-Time Weather Data

Output produced by METARs form (19 June 2018  07:01 UTC)
found at http://weather.rap.ucar.edu/surface/
 
Conditions at: KINF observed 19 June 2018  06:55 UTC
Temperature: 23.0°C (73°F)
Dewpoint: 23.0°C (73°F) [RH = 100%]
Pressure (altimeter): 30.04 inches Hg (1017.4 mb)
Winds: calm
Visibility: 10 or more miles (16+ km)
Ceiling: at least 12,000 feet AGL
Clouds: sky clear below 12,000 feet AGL
Present Weather: automated observation with no human augmentation;
there may or may not be significant weather present at this time
KINF 190655Z AUTO 00000KT 10SM CLR 23/23 A3004 RMK AO2

Conditions at: KINF observed 19 June 2018  06:35 UTC
Temperature: 23.0°C (73°F)
Dewpoint: 23.0°C (73°F) [RH = 100%]
Pressure (altimeter): 30.05 inches Hg (1017.7 mb)
Winds: calm
Visibility: 10 or more miles (16+ km)
Ceiling: at least 12,000 feet AGL
Clouds: scattered clouds at 7000 feet AGL
Present Weather: automated observation with no human augmentation;
there may or may not be significant weather present at this time
KINF 190635Z AUTO 00000KT 10SM SCT070 23/23 A3005 RMK AO2

Conditions at: KINF observed 19 June 2018  06:15 UTC
Temperature: 24.0°C (75°F)
Dewpoint: 24.0°C (75°F) [RH = 100%]
Pressure (altimeter): 30.05 inches Hg (1017.7 mb)
Winds: calm
Visibility: 10 or more miles (16+ km)
Ceiling: at least 12,000 feet AGL
Clouds: scattered clouds at 7000 feet AGL
Present Weather: automated observation with no human augmentation;
there may or may not be significant weather present at this time
KINF 190615Z AUTO 00000KT 10SM SCT070 24/24 A3005 RMK AO2

Conditions at: KINF observed 19 June 2018  05:55 UTC
Temperature: 24.0°C (75°F)
Dewpoint: 24.0°C (75°F) [RH = 100%]
Pressure (altimeter): 30.06 inches Hg (1018.0 mb)
Winds: calm
Visibility: 10 or more miles (16+ km)
Ceiling: at least 12,000 feet AGL
Clouds: sky clear below 12,000 feet AGL
Present Weather: automated observation with no human augmentation;
there may or may not be significant weather present at this time
KINF 190555Z AUTO 00000KT 10SM CLR 24/24 A3006 RMK AO2

Conditions at: KINF observed 19 June 2018  05:35 UTC
Temperature: 24.0°C (75°F)
Dewpoint: 24.0°C (75°F) [RH = 100%]
Pressure (altimeter): 30.06 inches Hg (1018.0 mb)
Winds: calm
Visibility: 10 or more miles (16+ km)
Ceiling: at least 12,000 feet AGL
Clouds: sky clear below 12,000 feet AGL
Present Weather: automated observation with no human augmentation;
there may or may not be significant weather present at this time
KINF 190535Z AUTO 00000KT 10SM CLR 24/24 A3006 RMK AO2 LTG DSNT SW

Conditions at: KINF observed 19 June 2018  05:15 UTC
Temperature: 24.0°C (75°F)
Dewpoint: 24.0°C (75°F) [RH = 100%]
Pressure (altimeter): 30.07 inches Hg (1018.4 mb)
Winds: calm
Visibility: 10 or more miles (16+ km)
Ceiling: at least 12,000 feet AGL
Clouds: sky clear below 12,000 feet AGL
Present Weather: automated observation with no human augmentation;
there may or may not be significant weather present at this time
KINF 190515Z AUTO 00000KT 10SM CLR 24/24 A3007 RMK AO2

Conditions at: KINF observed 19 June 2018  04:55 UTC
Temperature: 25.0°C (77°F)
Dewpoint: 25.0°C (77°F) [RH = 100%]
Pressure (altimeter): 30.08 inches Hg (1018.7 mb)
Winds: calm
Visibility: 10 or more miles (16+ km)
Ceiling: at least 12,000 feet AGL
Clouds: sky clear below 12,000 feet AGL
Present Weather: automated observation with no human augmentation;
there may or may not be significant weather present at this time
KINF 190455Z AUTO 00000KT 10SM CLR 25/25 A3008 RMK AO2

Conditions at: KINF observed 19 June 2018  04:35 UTC
Temperature: 25.0°C (77°F)
Dewpoint: 25.0°C (77°F) [RH = 100%]
Pressure (altimeter): 30.08 inches Hg (1018.7 mb)
Winds: calm
Visibility: 10 or more miles (16+ km)
Ceiling: at least 12,000 feet AGL
Clouds: sky clear below 12,000 feet AGL
Present Weather: automated observation with no human augmentation;
there may or may not be significant weather present at this time
KINF 190435Z AUTO 00000KT 10SM CLR 25/25 A3008 RMK AO2

Conditions at: KINF observed 19 June 2018  04:15 UTC
Temperature: 25.0°C (77°F)
Dewpoint: 25.0°C (77°F) [RH = 100%]
Pressure (altimeter): 30.08 inches Hg (1018.7 mb)
Winds: calm
Visibility: 10 or more miles (16+ km)
Ceiling: at least 12,000 feet AGL
Clouds: sky clear below 12,000 feet AGL
Present Weather: automated observation with no human augmentation;
there may or may not be significant weather present at this time
KINF 190415Z AUTO 00000KT 10SM CLR 25/25 A3008 RMK AO2

Conditions at: KINF observed 19 June 2018  03:55 UTC
Temperature: 26.0°C (79°F)
Dewpoint: 25.0°C (77°F) [RH = 94%]
Pressure (altimeter): 30.09 inches Hg (1019.0 mb)
Winds: calm
Visibility: 10 or more miles (16+ km)
Ceiling: at least 12,000 feet AGL
Clouds: scattered clouds at 5000 feet AGL
scattered clouds at 6000 feet AGL
Present Weather: automated observation with no human augmentation;
there may or may not be significant weather present at this time
KINF 190355Z AUTO 00000KT 10SM SCT050 SCT060 26/25 A3009 RMK AO2

Conditions at: KINF observed 19 June 2018  03:35 UTC
Temperature: 26.0°C (79°F)
Dewpoint: 25.0°C (77°F) [RH = 94%]
Pressure (altimeter): 30.09 inches Hg (1019.0 mb)
Winds: calm
Visibility: 10 or more miles (16+ km)
Ceiling: 3400 feet AGL
Clouds: broken clouds at 3400 feet AGL
broken clouds at 4200 feet AGL
overcast cloud deck at 5000 feet AGL
Present Weather: automated observation with no human augmentation;
there may or may not be significant weather present at this time
KINF 190335Z AUTO 00000KT 10SM BKN034 BKN042 OVC050 26/25 A3009 RMK AO2

Conditions at: KINF observed 19 June 2018  03:15 UTC
Temperature: 26.0°C (79°F)
Dewpoint: 24.0°C (75°F) [RH = 89%]
Pressure (altimeter): 30.09 inches Hg (1019.0 mb)
Winds: calm
Visibility: 10 or more miles (16+ km)
Ceiling: 3400 feet AGL
Clouds: broken clouds at 3400 feet AGL
broken clouds at 4700 feet AGL
overcast cloud deck at 7000 feet AGL
Present Weather: automated observation with no human augmentation;
there may or may not be significant weather present at this time
KINF 190315Z AUTO 00000KT 10SM BKN034 BKN047 OVC070 26/24 A3009 RMK AO2

Conditions at: KINF observed 19 June 2018  02:55 UTC
Temperature: 26.0°C (79°F)
Dewpoint: 24.0°C (75°F) [RH = 89%]
Pressure (altimeter): 30.08 inches Hg (1018.7 mb)
Winds: calm
Visibility: 10 or more miles (16+ km)
Ceiling: 3600 feet AGL
Clouds: broken clouds at 3600 feet AGL
broken clouds at 4600 feet AGL
overcast cloud deck at 7000 feet AGL
Present Weather: automated observation with no human augmentation;
there may or may not be significant weather present at this time
KINF 190255Z AUTO 00000KT 10SM BKN036 BKN046 OVC070 26/24 A3008 RMK AO2

Conditions at: KINF observed 19 June 2018  02:35 UTC
Temperature: 26.0°C (79°F)
Dewpoint: 24.0°C (75°F) [RH = 89%]
Pressure (altimeter): 30.08 inches Hg (1018.7 mb)
Winds: calm
Visibility: 10 or more miles (16+ km)
Ceiling: 3600 feet AGL
Clouds: overcast cloud deck at 3600 feet AGL
Present Weather: automated observation with no human augmentation;
there may or may not be significant weather present at this time
KINF 190235Z AUTO 00000KT 10SM OVC036 26/24 A3008 RMK AO2

Conditions at: KINF observed 19 June 2018  02:15 UTC
Temperature: 26.0°C (79°F)
Dewpoint: 24.0°C (75°F) [RH = 89%]
Pressure (altimeter): 30.08 inches Hg (1018.7 mb)
Winds: calm
Visibility: 10 or more miles (16+ km)
Ceiling: 3600 feet AGL
Clouds: broken clouds at 3600 feet AGL
broken clouds at 4300 feet AGL
Present Weather: automated observation with no human augmentation;
there may or may not be significant weather present at this time
KINF 190215Z AUTO 00000KT 10SM BKN036 BKN043 26/24 A3008 RMK AO2 LTG DSNT SW

Conditions at: KINF observed 19 June 2018  01:55 UTC
Temperature: 26.0°C (79°F)
Dewpoint: 24.0°C (75°F) [RH = 89%]
Pressure (altimeter): 30.07 inches Hg (1018.4 mb)
Winds: from the N (360 degrees) at 3 MPH (3 knots; 1.6 m/s)
Visibility: 10 or more miles (16+ km)
Ceiling: at least 12,000 feet AGL
Clouds: scattered clouds at 4300 feet AGL
scattered clouds at 6500 feet AGL
Present Weather: automated observation with no human augmentation;
there may or may not be significant weather present at this time
KINF 190155Z AUTO 36003KT 10SM SCT043 SCT065 26/24 A3007 RMK AO2 LTG DSNT SW

Conditions at: KINF observed 19 June 2018  01:35 UTC
Temperature: 26.0°C (79°F)
Dewpoint: 24.0°C (75°F) [RH = 89%]
Pressure (altimeter): 30.06 inches Hg (1018.0 mb)
Winds: from the NNE (20 degrees) at 3 MPH (3 knots; 1.6 m/s)
Visibility: 10 or more miles (16+ km)
Ceiling: 5500 feet AGL
Clouds: scattered clouds at 4500 feet AGL
broken clouds at 5500 feet AGL
broken clouds at 7000 feet AGL
Present Weather: automated observation with no human augmentation;
there may or may not be significant weather present at this time
KINF 190135Z AUTO 02003KT 10SM SCT045 BKN055 BKN070 26/24 A3006 RMK AO2 LTG DSNT SW

Conditions at: KINF observed 19 June 2018  01:15 UTC
Temperature: 27.0°C (81°F)
Dewpoint: 23.0°C (73°F) [RH = 79%]
Pressure (altimeter): 30.06 inches Hg (1018.0 mb)
Winds: from the N (10 degrees) at 5 MPH (4 knots; 2.1 m/s)
Visibility: 10 or more miles (16+ km)
Ceiling: 5500 feet AGL
Clouds: scattered clouds at 4700 feet AGL
broken clouds at 5500 feet AGL
Present Weather: automated observation with no human augmentation;
there may or may not be significant weather present at this time
KINF 190115Z AUTO 01004KT 10SM SCT047 BKN055 27/23 A3006 RMK AO2

Conditions at: KINF observed 19 June 2018  00:55 UTC
Temperature: 27.0°C (81°F)
Dewpoint: 23.0°C (73°F) [RH = 79%]
Pressure (altimeter): 30.06 inches Hg (1018.0 mb)
Winds: from the N (350 degrees) at 5 MPH (4 knots; 2.1 m/s)
Visibility: 10 or more miles (16+ km)
Ceiling: at least 12,000 feet AGL
Clouds: scattered clouds at 4900 feet AGL
scattered clouds at 5500 feet AGL
Present Weather: automated observation with no human augmentation;
there may or may not be significant weather present at this time
KINF 190055Z AUTO 35004KT 10SM SCT049 SCT055 27/23 A3006 RMK AO2 LTG DSNT W

Conditions at: KINF observed 19 June 2018  00:35 UTC
Temperature: 28.0°C (82°F)
Dewpoint: 24.0°C (75°F) [RH = 79%]
Pressure (altimeter): 30.06 inches Hg (1018.0 mb)
Winds: calm
Visibility: 10 or more miles (16+ km)
Ceiling: 4900 feet AGL
Clouds: broken clouds at 4900 feet AGL
overcast cloud deck at 5500 feet AGL
Present Weather: VCTS  (thunderstorm in vicinity)
KINF 190035Z AUTO 00000KT 10SM VCTS BKN049 OVC055 28/24 A3006 RMK AO2 LTG DSNT SW AND W

Conditions at: KINF observed 19 June 2018  00:15 UTC
Temperature: 28.0°C (82°F)
Dewpoint: 24.0°C (75°F) [RH = 79%]
Pressure (altimeter): 30.07 inches Hg (1018.4 mb)
Winds: from the NNW (330 degrees) at 3 MPH (3 knots; 1.6 m/s)
Visibility: 10 or more miles (16+ km)
Ceiling: 8000 feet AGL
Clouds: scattered clouds at 6000 feet AGL
broken clouds at 8000 feet AGL
Present Weather: TS  (thunderstorm)
KINF 190015Z AUTO 33003KT 10SM TS SCT060 BKN080 28/24 A3007 RMK AO2 LTG DSNT ALQS

Conditions at: KINF observed 18 June 2018  23:55 UTC
Temperature: 30.0°C (86°F)
Dewpoint: 25.0°C (77°F) [RH = 75%]
Pressure (altimeter): 30.05 inches Hg (1017.7 mb)
Winds: calm
Visibility: 10 or more miles (16+ km)
Ceiling: at least 12,000 feet AGL
Clouds: scattered clouds at 6000 feet AGL
scattered clouds at 8000 feet AGL
Present Weather: TS  (thunderstorm)
KINF 182355Z AUTO 00000KT 10SM TS SCT060 SCT080 30/25 A3005 RMK AO2 LTG DSNT ALQS

Conditions at: KINF observed 18 June 2018  23:35 UTC
Temperature: 31.0°C (88°F)
Dewpoint: 24.0°C (75°F) [RH = 66%]
Pressure (altimeter): 30.03 inches Hg (1017.0 mb)
Winds: calm
Visibility: 10 or more miles (16+ km)
Ceiling: at least 12,000 feet AGL
Clouds: sky clear below 12,000 feet AGL
Present Weather: VCTS  (thunderstorm in vicinity)
KINF 182335Z AUTO 00000KT 10SM VCTS CLR 31/24 A3003 RMK AO2 LTG DSNT S THRU NW

Conditions at: KINF observed 18 June 2018  23:15 UTC
Temperature: 31.0°C (88°F)
Dewpoint: 24.0°C (75°F) [RH = 66%]
Pressure (altimeter): 30.05 inches Hg (1017.7 mb)
Winds: calm
Visibility: 10 or more miles (16+ km)
Ceiling: at least 12,000 feet AGL
Clouds: sky clear below 12,000 feet AGL
Present Weather: TS  (thunderstorm)
KINF 182315Z AUTO 00000KT 10SM TS CLR 31/24 A3005 RMK AO2 LTG DSNT ALQS

Conditions at: KINF observed 18 June 2018  22:55 UTC
Temperature: 31.0°C (88°F)
Dewpoint: 23.0°C (73°F) [RH = 63%]
Pressure (altimeter): 30.05 inches Hg (1017.7 mb)
Winds: from the ESE (120 degrees) at 5 MPH (4 knots; 2.1 m/s)
Visibility: 7 miles (11 km)
Ceiling: at least 12,000 feet AGL
Clouds: sky clear below 12,000 feet AGL
Present Weather: automated observation with no human augmentation;
there may or may not be significant weather present at this time
KINF 182255Z AUTO 12004KT 7SM CLR 31/23 A3005 RMK AO2 LTG DSNT W THRU N

Conditions at: KINF observed 18 June 2018  22:35 UTC
Temperature: 33.0°C (91°F)
Dewpoint: 24.0°C (75°F) [RH = 59%]
Pressure (altimeter): 30.04 inches Hg (1017.4 mb)
Winds: from the ESE (110 degrees) at 8 MPH (7 knots; 3.6 m/s)
Visibility: 7 miles (11 km)
Ceiling: at least 12,000 feet AGL
Clouds: sky clear below 12,000 feet AGL
Present Weather: automated observation with no human augmentation;
there may or may not be significant weather present at this time
KINF 182235Z AUTO 11007KT 7SM CLR 33/24 A3004 RMK AO2 LTG DSNT NW

Conditions at: KINF observed 18 June 2018  22:15 UTC
Temperature: 33.0°C (91°F)
Dewpoint: 23.0°C (73°F) [RH = 56%]
Pressure (altimeter): 30.03 inches Hg (1017.0 mb)
Winds: from the E (100 degrees) at 6 MPH (5 knots; 2.6 m/s)
Visibility: 7 miles (11 km)
Ceiling: at least 12,000 feet AGL
Clouds: sky clear below 12,000 feet AGL
Present Weather: automated observation with no human augmentation;
there may or may not be significant weather present at this time
KINF 182215Z AUTO 10005KT 7SM CLR 33/23 A3003 RMK AO2 LTG DSNT N

Conditions at: KINF observed 18 June 2018  21:55 UTC
Temperature: 33.0°C (91°F)
Dewpoint: 23.0°C (73°F) [RH = 56%]
Pressure (altimeter): 30.04 inches Hg (1017.4 mb)
Winds: from the ESE (120 degrees) at 5 MPH (4 knots; 2.1 m/s)
Visibility: 7 miles (11 km)
Ceiling: at least 12,000 feet AGL
Clouds: sky clear below 12,000 feet AGL
Present Weather: automated observation with no human augmentation;
there may or may not be significant weather present at this time
KINF 182155Z AUTO 12004KT 7SM CLR 33/23 A3004 RMK AO2 LTG DSNT N AND NW

Conditions at: KINF observed 18 June 2018  21:35 UTC
Temperature: 33.0°C (91°F)
Dewpoint: 23.0°C (73°F) [RH = 56%]
Pressure (altimeter): 30.05 inches Hg (1017.7 mb)
Winds: from the ESE (120 degrees) at 6 MPH (5 knots; 2.6 m/s)
Visibility: 7 miles (11 km)
Ceiling: at least 12,000 feet AGL
Clouds: scattered clouds at 4900 feet AGL
Present Weather: automated observation with no human augmentation;
there may or may not be significant weather present at this time
KINF 182135Z AUTO 12005KT 7SM SCT049 33/23 A3005 RMK AO2 LTG DSNT N

Conditions at: KINF observed 18 June 2018  21:15 UTC
Temperature: 33.0°C (91°F)
Dewpoint: 22.0°C (72°F) [RH = 53%]
Pressure (altimeter): 30.05 inches Hg (1017.7 mb)
Winds: from the E (90 degrees) at 3 MPH (3 knots; 1.6 m/s)
Visibility: 7 miles (11 km)
Ceiling: at least 12,000 feet AGL
Clouds: scattered clouds at 10000 feet AGL
Present Weather: automated observation with no human augmentation;
there may or may not be significant weather present at this time
KINF 182115Z AUTO 09003KT 7SM SCT100 33/22 A3005 RMK AO2 LTG DSNT NW

Conditions at: KINF observed 18 June 2018  20:55 UTC
Temperature: 34.0°C (93°F)
Dewpoint: 23.0°C (73°F) [RH = 53%]
Pressure (altimeter): 30.05 inches Hg (1017.7 mb)
Winds: from the SE (140 degrees) at 6 MPH (5 knots; 2.6 m/s)
Visibility: 7 miles (11 km)
Ceiling: at least 12,000 feet AGL
Clouds: scattered clouds at 4900 feet AGL
scattered clouds at 6000 feet AGL
scattered clouds at 10000 feet AGL
Present Weather: automated observation with no human augmentation;
there may or may not be significant weather present at this time
KINF 182055Z AUTO 14005KT 7SM SCT049 SCT060 SCT100 34/23 A3005 RMK AO2 LTG DSNT NW

Conditions at: KINF observed 18 June 2018  20:35 UTC
Temperature: 33.0°C (91°F)
Dewpoint: 22.0°C (72°F) [RH = 53%]
Pressure (altimeter): 30.06 inches Hg (1018.0 mb)
Winds: calm
Visibility: 7 miles (11 km)
Ceiling: at least 12,000 feet AGL
Clouds: scattered clouds at 4800 feet AGL
Present Weather: automated observation with no human augmentation;
there may or may not be significant weather present at this time
KINF 182035Z AUTO 00000KT 7SM SCT048 33/22 A3006 RMK AO2 LTG DSNT N

Conditions at: KINF observed 18 June 2018  20:15 UTC
Temperature: 33.0°C (91°F)
Dewpoint: 23.0°C (73°F) [RH = 56%]
Pressure (altimeter): 30.06 inches Hg (1018.0 mb)
Winds: from the SSE (160 degrees) at 3 MPH (3 knots; 1.6 m/s)
Visibility: 10 or more miles (16+ km)
Ceiling: at least 12,000 feet AGL
Clouds: scattered clouds at 4800 feet AGL
Present Weather: automated observation with no human augmentation;
there may or may not be significant weather present at this time
KINF 182015Z AUTO 16003KT 10SM SCT048 33/23 A3006 RMK AO2

Conditions at: KINF observed 18 June 2018  19:55 UTC
Temperature: 34.0°C (93°F)
Dewpoint: 22.0°C (72°F) [RH = 50%]
Pressure (altimeter): 30.07 inches Hg (1018.4 mb)
Winds: from the N (350 degrees) at 3 MPH (3 knots; 1.6 m/s)
Visibility: 7 miles (11 km)
Ceiling: at least 12,000 feet AGL
Clouds: sky clear below 12,000 feet AGL
Present Weather: automated observation with no human augmentation;
there may or may not be significant weather present at this time
KINF 181955Z AUTO 35003KT 7SM CLR 34/22 A3007 RMK AO2 LTG DSNT N

Conditions at: KINF observed 18 June 2018  19:35 UTC
Temperature: 33.0°C (91°F)
Dewpoint: 22.0°C (72°F) [RH = 53%]
Pressure (altimeter): 30.08 inches Hg (1018.7 mb)
Winds: from the NNE (20 degrees) at 6 MPH (5 knots; 2.6 m/s)
Visibility: 7 miles (11 km)
Ceiling: at least 12,000 feet AGL
Clouds: scattered clouds at 5500 feet AGL
scattered clouds at 6500 feet AGL
Present Weather: automated observation with no human augmentation;
there may or may not be significant weather present at this time
KINF 181935Z AUTO 02005KT 7SM SCT055 SCT065 33/22 A3008 RMK AO2 LTG DSNT SW

Conditions at: KINF observed 18 June 2018  19:15 UTC
Temperature: 33.0°C (91°F)
Dewpoint: 23.0°C (73°F) [RH = 56%]
Pressure (altimeter): 30.09 inches Hg (1019.0 mb)
Winds: from the S (170 degrees) at 3 MPH (3 knots; 1.6 m/s)
Visibility: 7 miles (11 km)
Ceiling: at least 12,000 feet AGL
Clouds: scattered clouds at 5500 feet AGL
scattered clouds at 6500 feet AGL
Present Weather: automated observation with no human augmentation;
there may or may not be significant weather present at this time
KINF 181915Z AUTO 17003KT 7SM SCT055 SCT065 33/23 A3009 RMK AO2

Conditions at: KINF observed 18 June 2018  18:55 UTC
Temperature: 33.0°C (91°F)
Dewpoint: 23.0°C (73°F) [RH = 56%]
Pressure (altimeter): 30.09 inches Hg (1019.0 mb)
Winds: calm
Visibility: 7 miles (11 km)
Ceiling: at least 12,000 feet AGL
Clouds: sky clear below 12,000 feet AGL
Present Weather: automated observation with no human augmentation;
there may or may not be significant weather present at this time
KINF 181855Z AUTO 00000KT 7SM CLR 33/23 A3009 RMK AO2

Conditions at: KINF observed 18 June 2018  18:35 UTC
Temperature: 33.0°C (91°F)
Dewpoint: 23.0°C (73°F) [RH = 56%]
Pressure (altimeter): 30.10 inches Hg (1019.4 mb)
Winds: from the SE (130 degrees) at 5 MPH (4 knots; 2.1 m/s)
Visibility: 7 miles (11 km)
Ceiling: at least 12,000 feet AGL
Clouds: scattered clouds at 4400 feet AGL
scattered clouds at 5500 feet AGL
Present Weather: automated observation with no human augmentation;
there may or may not be significant weather present at this time
KINF 181835Z AUTO 13004KT 7SM SCT044 SCT055 33/23 A3010 RMK AO2

Conditions at: KINF observed 18 June 2018  18:15 UTC
Temperature: 32.0°C (90°F)
Dewpoint: 23.0°C (73°F) [RH = 59%]
Pressure (altimeter): 30.11 inches Hg (1019.7 mb)
Winds: from the E (90 degrees) at 6 MPH (5 knots; 2.6 m/s)
Visibility: 7 miles (11 km)
Ceiling: 4200 feet AGL
Clouds: broken clouds at 4200 feet AGL
broken clouds at 7000 feet AGL
Present Weather: automated observation with no human augmentation;
there may or may not be significant weather present at this time
KINF 181815Z AUTO 09005KT 7SM BKN042 BKN070 32/23 A3011 RMK AO2

Conditions at: KINF observed 18 June 2018  17:55 UTC
Temperature: 32.0°C (90°F)
Dewpoint: 23.0°C (73°F) [RH = 59%]
Pressure (altimeter): 30.12 inches Hg (1020.1 mb)
Winds: from the E (100 degrees) at 5 MPH (4 knots; 2.1 m/s)
Visibility: 7 miles (11 km)
Ceiling: 4200 feet AGL
Clouds: broken clouds at 4200 feet AGL
broken clouds at 4900 feet AGL
broken clouds at 6000 feet AGL
Present Weather: automated observation with no human augmentation;
there may or may not be significant weather present at this time
KINF 181755Z AUTO 10004KT 7SM BKN042 BKN049 BKN060 32/23 A3012 RMK AO2

Conditions at: KINF observed 18 June 2018  17:35 UTC
Temperature: 33.0°C (91°F)
Dewpoint: 23.0°C (73°F) [RH = 56%]
Pressure (altimeter): 30.12 inches Hg (1020.1 mb)
Winds: from the ENE (70 degrees) at 3 MPH (3 knots; 1.6 m/s)
Visibility: 10 or more miles (16+ km)
Ceiling: at least 12,000 feet AGL
Clouds: scattered clouds at 4000 feet AGL
scattered clouds at 6000 feet AGL
Present Weather: automated observation with no human augmentation;
there may or may not be significant weather present at this time
KINF 181735Z AUTO 07003KT 10SM SCT040 SCT060 33/23 A3012 RMK AO2

Conditions at: KINF observed 18 June 2018  17:15 UTC
Temperature: 32.0°C (90°F)
Dewpoint: 23.0°C (73°F) [RH = 59%]
Pressure (altimeter): 30.13 inches Hg (1020.4 mb)
Winds: from the ESE (110 degrees) at 3 MPH (3 knots; 1.6 m/s)
Visibility: 7 miles (11 km)
Ceiling: at least 12,000 feet AGL
Clouds: scattered clouds at 4000 feet AGL
scattered clouds at 5000 feet AGL
scattered clouds at 6000 feet AGL
Present Weather: automated observation with no human augmentation;
there may or may not be significant weather present at this time
KINF 181715Z AUTO 11003KT 7SM SCT040 SCT050 SCT060 32/23 A3013 RMK AO2

Conditions at: KINF observed 18 June 2018  16:55 UTC
Temperature: 32.0°C (90°F)
Dewpoint: 23.0°C (73°F) [RH = 59%]
Pressure (altimeter): 30.13 inches Hg (1020.4 mb)
Winds: from the ESE (120 degrees) at 7 MPH (6 knots; 3.1 m/s)
Visibility: 7 miles (11 km)
Ceiling: at least 12,000 feet AGL
Clouds: scattered clouds at 4000 feet AGL
Present Weather: automated observation with no human augmentation;
there may or may not be significant weather present at this time
KINF 181655Z AUTO 12006KT 7SM SCT040 32/23 A3013 RMK AO2

Conditions at: KINF observed 18 June 2018  16:35 UTC
Temperature: 31.0°C (88°F)
Dewpoint: 23.0°C (73°F) [RH = 63%]
Pressure (altimeter): 30.14 inches Hg (1020.7 mb)
Winds: calm
Visibility: 7 miles (11 km)
Ceiling: at least 12,000 feet AGL
Clouds: scattered clouds at 3800 feet AGL
Present Weather: automated observation with no human augmentation;
there may or may not be significant weather present at this time
KINF 181635Z AUTO 00000KT 7SM SCT038 31/23 A3014 RMK AO2

Conditions at: KINF observed 18 June 2018  16:15 UTC
Temperature: 31.0°C (88°F)
Dewpoint: 23.0°C (73°F) [RH = 63%]
Pressure (altimeter): 30.14 inches Hg (1020.7 mb)
Winds: calm
Visibility: 10 or more miles (16+ km)
Ceiling: at least 12,000 feet AGL
Clouds: scattered clouds at 3600 feet AGL
Present Weather: automated observation with no human augmentation;
there may or may not be significant weather present at this time
KINF 181615Z AUTO 00000KT 10SM SCT036 31/23 A3014 RMK AO2

Conditions at: KINF observed 18 June 2018  15:55 UTC
Temperature: 31.0°C (88°F)
Dewpoint: 24.0°C (75°F) [RH = 66%]
Pressure (altimeter): 30.14 inches Hg (1020.7 mb)
Winds: from the E (90 degrees) at 3 MPH (3 knots; 1.6 m/s)
Visibility: 10 or more miles (16+ km)
Ceiling: at least 12,000 feet AGL
Clouds: scattered clouds at 3400 feet AGL
Present Weather: automated observation with no human augmentation;
there may or may not be significant weather present at this time
KINF 181555Z AUTO 09003KT 10SM SCT034 31/24 A3014 RMK AO2

Conditions at: KINF observed 18 June 2018  15:35 UTC
Temperature: 31.0°C (88°F)
Dewpoint: 23.0°C (73°F) [RH = 63%]
Pressure (altimeter): 30.15 inches Hg (1021.1 mb)
Winds: from the E (90 degrees) at 3 MPH (3 knots; 1.6 m/s)
Visibility: 10 or more miles (16+ km)
Ceiling: at least 12,000 feet AGL
Clouds: scattered clouds at 3200 feet AGL
Present Weather: automated observation with no human augmentation;
there may or may not be significant weather present at this time
KINF 181535Z AUTO 09003KT 10SM SCT032 31/23 A3015 RMK AO2

Conditions at: KINF observed 18 June 2018  15:15 UTC
Temperature: 31.0°C (88°F)
Dewpoint: 23.0°C (73°F) [RH = 63%]
Pressure (altimeter): 30.15 inches Hg (1021.1 mb)
Winds: from the E (80 degrees) at 3 MPH (3 knots; 1.6 m/s)
Visibility: 10 or more miles (16+ km)
Ceiling: at least 12,000 feet AGL
Clouds: scattered clouds at 3000 feet AGL
Present Weather: automated observation with no human augmentation;
there may or may not be significant weather present at this time
KINF 181515Z AUTO 08003KT 10SM SCT030 31/23 A3015 RMK AO2

Conditions at: KINF observed 18 June 2018  14:55 UTC
Temperature: 30.0°C (86°F)
Dewpoint: 23.0°C (73°F) [RH = 66%]
Pressure (altimeter): 30.15 inches Hg (1021.1 mb)
Winds: from the E (90 degrees) at 5 MPH (4 knots; 2.1 m/s)
Visibility: 10 or more miles (16+ km)
Ceiling: at least 12,000 feet AGL
Clouds: scattered clouds at 3000 feet AGL
Present Weather: automated observation with no human augmentation;
there may or may not be significant weather present at this time
KINF 181455Z AUTO 09004KT 10SM SCT030 30/23 A3015 RMK AO2

Conditions at: KINF observed 18 June 2018  14:35 UTC
Temperature: 30.0°C (86°F)
Dewpoint: 23.0°C (73°F) [RH = 66%]
Pressure (altimeter): 30.15 inches Hg (1021.1 mb)
Winds: from the NE (40 degrees) at 3 MPH (3 knots; 1.6 m/s)
Visibility: 10 or more miles (16+ km)
Ceiling: at least 12,000 feet AGL
Clouds: scattered clouds at 2400 feet AGL
Present Weather: automated observation with no human augmentation;
there may or may not be significant weather present at this time
KINF 181435Z AUTO 04003KT 10SM SCT024 30/23 A3015 RMK AO2

Conditions at: KINF observed 18 June 2018  14:15 UTC
Temperature: 29.0°C (84°F)
Dewpoint: 25.0°C (77°F) [RH = 79%]
Pressure (altimeter): 30.15 inches Hg (1021.1 mb)
Winds: calm
Visibility: 10 or more miles (16+ km)
Ceiling: at least 12,000 feet AGL
Clouds: scattered clouds at 2000 feet AGL
Present Weather: automated observation with no human augmentation;
there may or may not be significant weather present at this time
KINF 181415Z AUTO 00000KT 10SM SCT020 29/25 A3015 RMK AO2

Conditions at: KINF observed 18 June 2018  13:55 UTC
Temperature: 29.0°C (84°F)
Dewpoint: 26.0°C (79°F) [RH = 84%]
Pressure (altimeter): 30.16 inches Hg (1021.4 mb)
Winds: from the E (90 degrees) at 5 MPH (4 knots; 2.1 m/s)
Visibility: 10 or more miles (16+ km)
Ceiling: at least 12,000 feet AGL
Clouds: scattered clouds at 1800 feet AGL
scattered clouds at 3100 feet AGL
Present Weather: automated observation with no human augmentation;
there may or may not be significant weather present at this time
KINF 181355Z AUTO 09004KT 10SM SCT018 SCT031 29/26 A3016 RMK AO2

Conditions at: KINF observed 18 June 2018  13:35 UTC
Temperature: 28.0°C (82°F)
Dewpoint: 26.0°C (79°F) [RH = 89%]
Pressure (altimeter): 30.16 inches Hg (1021.4 mb)
Winds: from the E (90 degrees) at 3 MPH (3 knots; 1.6 m/s)
Visibility: 10 or more miles (16+ km)
Ceiling: 1300 feet AGL
Clouds: broken clouds at 1300 feet AGL
scattered clouds at 2000 feet AGL
broken clouds at 3100 feet AGL
Present Weather: automated observation with no human augmentation;
there may or may not be significant weather present at this time
KINF 181335Z AUTO 09003KT 10SM BKN013 SCT020 BKN031 28/26 A3016 RMK AO2

Conditions at: KINF observed 18 June 2018  13:15 UTC
Temperature: 27.0°C (81°F)
Dewpoint: 26.0°C (79°F) [RH = 94%]
Pressure (altimeter): 30.15 inches Hg (1021.1 mb)
Winds: calm
Visibility: 10 or more miles (16+ km)
Ceiling: 1100 feet AGL
Clouds: broken clouds at 1100 feet AGL
Present Weather: automated observation with no human augmentation;
there may or may not be significant weather present at this time
KINF 181315Z AUTO 00000KT 10SM BKN011 27/26 A3015 RMK AO2

Conditions at: KINF observed 18 June 2018  12:55 UTC
Temperature: 27.0°C (81°F)
Dewpoint: 26.0°C (79°F) [RH = 94%]
Pressure (altimeter): 30.15 inches Hg (1021.1 mb)
Winds: from the E (90 degrees) at 3 MPH (3 knots; 1.6 m/s)
Visibility: 10 or more miles (16+ km)
Ceiling: 900 feet AGL
Clouds: broken clouds at 900 feet AGL
Present Weather: automated observation with no human augmentation;
there may or may not be significant weather present at this time
KINF 181255Z AUTO 09003KT 10SM BKN009 27/26 A3015 RMK AO2

Conditions at: KINF observed 18 June 2018  12:35 UTC
Temperature: 27.0°C (81°F)
Dewpoint: 26.0°C (79°F) [RH = 94%]
Pressure (altimeter): 30.15 inches Hg (1021.1 mb)
Winds: calm
Visibility: 10 or more miles (16+ km)
Ceiling: at least 12,000 feet AGL
Clouds: scattered clouds at 700 feet AGL
Present Weather: automated observation with no human augmentation;
there may or may not be significant weather present at this time
KINF 181235Z AUTO 00000KT 10SM SCT007 27/26 A3015 RMK AO2

Conditions at: KINF observed 18 June 2018  12:15 UTC
Temperature: 25.0°C (77°F)
Dewpoint: 25.0°C (77°F) [RH = 100%]
Pressure (altimeter): 30.15 inches Hg (1021.1 mb)
Winds: calm
Visibility: 10 or more miles (16+ km)
Ceiling: at least 12,000 feet AGL
Clouds: sky clear below 12,000 feet AGL
Present Weather: automated observation with no human augmentation;
there may or may not be significant weather present at this time
KINF 181215Z AUTO 00000KT 10SM CLR 25/25 A3015 RMK AO2

Conditions at: KINF observed 18 June 2018  11:55 UTC
Temperature: 25.0°C (77°F)
Dewpoint: 25.0°C (77°F) [RH = 100%]
Pressure (altimeter): 30.14 inches Hg (1020.7 mb)
Winds: from the NNE (30 degrees) at 3 MPH (3 knots; 1.6 m/s)
Visibility: 10 or more miles (16+ km)
Ceiling: at least 12,000 feet AGL
Clouds: sky clear below 12,000 feet AGL
Present Weather: automated observation with no human augmentation;
there may or may not be significant weather present at this time
KINF 181155Z AUTO 03003KT 10SM CLR 25/25 A3014 RMK AO2

Conditions at: KINF observed 18 June 2018  11:35 UTC
Temperature: 23.0°C (73°F)
Dewpoint: 23.0°C (73°F) [RH = 100%]
Pressure (altimeter): 30.14 inches Hg (1020.7 mb)
Winds: calm
Visibility: 10 or more miles (16+ km)
Ceiling: at least 12,000 feet AGL
Clouds: sky clear below 12,000 feet AGL
Present Weather: automated observation with no human augmentation;
there may or may not be significant weather present at this time
KINF 181135Z AUTO 00000KT 10SM CLR 23/23 A3014 RMK AO2

Conditions at: KINF observed 18 June 2018  11:15 UTC
Temperature: 22.0°C (72°F)
Dewpoint: 22.0°C (72°F) [RH = 100%]
Pressure (altimeter): 30.13 inches Hg (1020.4 mb)
Winds: calm
Visibility: 10 or more miles (16+ km)
Ceiling: at least 12,000 feet AGL
Clouds: sky clear below 12,000 feet AGL
Present Weather: automated observation with no human augmentation;
there may or may not be significant weather present at this time
KINF 181115Z AUTO 00000KT 10SM CLR 22/22 A3013 RMK AO2

Conditions at: KINF observed 18 June 2018  10:55 UTC
Temperature: 22.0°C (72°F)
Dewpoint: 22.0°C (72°F) [RH = 100%]
Pressure (altimeter): 30.13 inches Hg (1020.4 mb)
Winds: calm
Visibility: 10 or more miles (16+ km)
Ceiling: at least 12,000 feet AGL
Clouds: sky clear below 12,000 feet AGL
Present Weather: automated observation with no human augmentation;
there may or may not be significant weather present at this time
KINF 181055Z AUTO 00000KT 10SM CLR 22/22 A3013 RMK AO2

Conditions at: KINF observed 18 June 2018  10:35 UTC
Temperature: 22.0°C (72°F)
Dewpoint: 22.0°C (72°F) [RH = 100%]
Pressure (altimeter): 30.13 inches Hg (1020.4 mb)
Winds: calm
Visibility: 7 miles (11 km)
Ceiling: at least 12,000 feet AGL
Clouds: sky clear below 12,000 feet AGL
Present Weather: automated observation with no human augmentation;
there may or may not be significant weather present at this time
KINF 181035Z AUTO 00000KT 7SM CLR 22/22 A3013 RMK AO2

Conditions at: KINF observed 18 June 2018  10:15 UTC
Temperature: 22.0°C (72°F)
Dewpoint: 22.0°C (72°F) [RH = 100%]
Pressure (altimeter): 30.12 inches Hg (1020.1 mb)
Winds: calm
Visibility: 10 or more miles (16+ km)
Ceiling: at least 12,000 feet AGL
Clouds: sky clear below 12,000 feet AGL
Present Weather: automated observation with no human augmentation;
there may or may not be significant weather present at this time
KINF 181015Z AUTO 00000KT 10SM CLR 22/22 A3012 RMK AO2

Conditions at: KINF observed 18 June 2018  09:55 UTC
Temperature: 23.0°C (73°F)
Dewpoint: 23.0°C (73°F) [RH = 100%]
Pressure (altimeter): 30.11 inches Hg (1019.7 mb)
Winds: calm
Visibility: 10 or more miles (16+ km)
Ceiling: at least 12,000 feet AGL
Clouds: sky clear below 12,000 feet AGL
Present Weather: automated observation with no human augmentation;
there may or may not be significant weather present at this time
KINF 180955Z AUTO 00000KT 10SM CLR 23/23 A3011 RMK AO2

Conditions at: KINF observed 18 June 2018  09:35 UTC
Temperature: 22.0°C (72°F)
Dewpoint: 22.0°C (72°F) [RH = 100%]
Pressure (altimeter): 30.10 inches Hg (1019.4 mb)
Winds: calm
Visibility: 10 or more miles (16+ km)
Ceiling: at least 12,000 feet AGL
Clouds: sky clear below 12,000 feet AGL
Present Weather: automated observation with no human augmentation;
there may or may not be significant weather present at this time
KINF 180935Z AUTO 00000KT 10SM CLR 22/22 A3010 RMK AO2

Conditions at: KINF observed 18 June 2018  09:15 UTC
Temperature: 22.0°C (72°F)
Dewpoint: 22.0°C (72°F) [RH = 100%]
Pressure (altimeter): 30.10 inches Hg (1019.4 mb)
Winds: calm
Visibility: 10 or more miles (16+ km)
Ceiling: at least 12,000 feet AGL
Clouds: sky clear below 12,000 feet AGL
Present Weather: automated observation with no human augmentation;
there may or may not be significant weather present at this time
KINF 180915Z AUTO 00000KT 10SM CLR 22/22 A3010 RMK AO2

Conditions at: KINF observed 18 June 2018  08:55 UTC
Temperature: 22.0°C (72°F)
Dewpoint: 22.0°C (72°F) [RH = 100%]
Pressure (altimeter): 30.10 inches Hg (1019.4 mb)
Winds: calm
Visibility: 10 or more miles (16+ km)
Ceiling: at least 12,000 feet AGL
Clouds: sky clear below 12,000 feet AGL
Present Weather: automated observation with no human augmentation;
there may or may not be significant weather present at this time
KINF 180855Z AUTO 00000KT 10SM CLR 22/22 A3010 RMK AO2

Conditions at: KINF observed 18 June 2018  08:35 UTC
Temperature: 23.0°C (73°F)
Dewpoint: 23.0°C (73°F) [RH = 100%]
Pressure (altimeter): 30.09 inches Hg (1019.0 mb)
Winds: calm
Visibility: 10 or more miles (16+ km)
Ceiling: at least 12,000 feet AGL
Clouds: sky clear below 12,000 feet AGL
Present Weather: automated observation with no human augmentation;
there may or may not be significant weather present at this time
KINF 180835Z AUTO 00000KT 10SM CLR 23/23 A3009 RMK AO2

Conditions at: KINF observed 18 June 2018  08:15 UTC
Temperature: 23.0°C (73°F)
Dewpoint: 23.0°C (73°F) [RH = 100%]
Pressure (altimeter): 30.09 inches Hg (1019.0 mb)
Winds: calm
Visibility: 10 or more miles (16+ km)
Ceiling: at least 12,000 feet AGL
Clouds: sky clear below 12,000 feet AGL
Present Weather: automated observation with no human augmentation;
there may or may not be significant weather present at this time
KINF 180815Z AUTO 00000KT 10SM CLR 23/23 A3009 RMK AO2

Conditions at: KINF observed 18 June 2018  07:35 UTC
Temperature: 23.0°C (73°F)
Dewpoint: 23.0°C (73°F) [RH = 100%]
Pressure (altimeter): 30.10 inches Hg (1019.4 mb)
Winds: calm
Visibility: 10 or more miles (16+ km)
Ceiling: at least 12,000 feet AGL
Clouds: sky clear below 12,000 feet AGL
Present Weather: automated observation with no human augmentation;
there may or may not be significant weather present at this time
KINF 180735Z AUTO 00000KT 10SM CLR 23/23 A3010 RMK AO2

Conditions at: KINF observed 18 June 2018  07:15 UTC
Temperature: 23.0°C (73°F)
Dewpoint: 23.0°C (73°F) [RH = 100%]
Pressure (altimeter): 30.11 inches Hg (1019.7 mb)
Winds: calm
Visibility: 10 or more miles (16+ km)
Ceiling: at least 12,000 feet AGL
Clouds: sky clear below 12,000 feet AGL
Present Weather: automated observation with no human augmentation;
there may or may not be significant weather present at this time
KINF 180715Z AUTO 00000KT 10SM CLR 23/23 A3011 RMK AO2

Conditions at: KINF observed 18 June 2018  06:55 UTC
Temperature: 23.0°C (73°F)
Dewpoint: 23.0°C (73°F) [RH = 100%]
Pressure (altimeter): 30.11 inches Hg (1019.7 mb)
Winds: calm
Visibility: 10 or more miles (16+ km)
Ceiling: 12000 feet AGL
Clouds: broken clouds at 12000 feet AGL
Present Weather: automated observation with no human augmentation;
there may or may not be significant weather present at this time
KINF 180655Z AUTO 00000KT 10SM BKN120 23/23 A3011 RMK AO2

Conditions at: KINF observed 18 June 2018  06:35 UTC
Temperature: 23.0°C (73°F)
Dewpoint: 23.0°C (73°F) [RH = 100%]
Pressure (altimeter): 30.11 inches Hg (1019.7 mb)
Winds: calm
Visibility: 10 or more miles (16+ km)
Ceiling: 11000 feet AGL
Clouds: overcast cloud deck at 11000 feet AGL
Present Weather: automated observation with no human augmentation;
there may or may not be significant weather present at this time
KINF 180635Z AUTO 00000KT 10SM OVC110 23/23 A3011 RMK AO2

Conditions at: KINF observed 18 June 2018  06:15 UTC
Temperature: 24.0°C (75°F)
Dewpoint: 24.0°C (75°F) [RH = 100%]
Pressure (altimeter): 30.12 inches Hg (1020.1 mb)
Winds: calm
Visibility: 10 or more miles (16+ km)
Ceiling: at least 12,000 feet AGL
Clouds: scattered clouds at 11000 feet AGL
Present Weather: automated observation with no human augmentation;
there may or may not be significant weather present at this time
KINF 180615Z AUTO 00000KT 10SM SCT110 24/24 A3012 RMK AO2

Conditions at: KINF observed 18 June 2018  05:55 UTC
Temperature: 24.0°C (75°F)
Dewpoint: 24.0°C (75°F) [RH = 100%]
Pressure (altimeter): 30.13 inches Hg (1020.4 mb)
Winds: calm
Visibility: 10 or more miles (16+ km)
Ceiling: at least 12,000 feet AGL
Clouds: sky clear below 12,000 feet AGL
Present Weather: automated observation with no human augmentation;
there may or may not be significant weather present at this time
KINF 180555Z AUTO 00000KT 10SM CLR 24/24 A3013 RMK AO2

Conditions at: KINF observed 18 June 2018  05:35 UTC
Temperature: 25.0°C (77°F)
Dewpoint: 25.0°C (77°F) [RH = 100%]
Pressure (altimeter): 30.13 inches Hg (1020.4 mb)
Winds: calm
Visibility: 10 or more miles (16+ km)
Ceiling: at least 12,000 feet AGL
Clouds: sky clear below 12,000 feet AGL
Present Weather: automated observation with no human augmentation;
there may or may not be significant weather present at this time
KINF 180535Z AUTO 00000KT 10SM CLR 25/25 A3013 RMK AO2

Conditions at: KINF observed 18 June 2018  04:55 UTC
Temperature: 25.0°C (77°F)
Dewpoint: 24.0°C (75°F) [RH = 94%]
Pressure (altimeter): 30.14 inches Hg (1020.7 mb)
Winds: calm
Visibility: 10 or more miles (16+ km)
Ceiling: at least 12,000 feet AGL
Clouds: sky clear below 12,000 feet AGL
Present Weather: automated observation with no human augmentation;
there may or may not be significant weather present at this time
KINF 180455Z AUTO 00000KT 10SM CLR 25/24 A3014 RMK AO2

Conditions at: KINF observed 18 June 2018  04:35 UTC
Temperature: 25.0°C (77°F)
Dewpoint: 24.0°C (75°F) [RH = 94%]
Pressure (altimeter): 30.14 inches Hg (1020.7 mb)
Winds: from the NNE (20 degrees) at 3 MPH (3 knots; 1.6 m/s)
Visibility: 10 or more miles (16+ km)
Ceiling: at least 12,000 feet AGL
Clouds: sky clear below 12,000 feet AGL
Present Weather: automated observation with no human augmentation;
there may or may not be significant weather present at this time
KINF 180435Z AUTO 02003KT 10SM CLR 25/24 A3014 RMK AO2

Conditions at: KINF observed 18 June 2018  04:15 UTC
Temperature: 25.0°C (77°F)
Dewpoint: 24.0°C (75°F) [RH = 94%]
Pressure (altimeter): 30.14 inches Hg (1020.7 mb)
Winds: calm
Visibility: 10 or more miles (16+ km)
Ceiling: at least 12,000 feet AGL
Clouds: sky clear below 12,000 feet AGL
Present Weather: automated observation with no human augmentation;
there may or may not be significant weather present at this time
KINF 180415Z AUTO 00000KT 10SM CLR 25/24 A3014 RMK AO2

Conditions at: KINF observed 18 June 2018  03:55 UTC
Temperature: 25.0°C (77°F)
Dewpoint: 24.0°C (75°F) [RH = 94%]
Pressure (altimeter): 30.13 inches Hg (1020.4 mb)
Winds: calm
Visibility: 10 or more miles (16+ km)
Ceiling: at least 12,000 feet AGL
Clouds: sky clear below 12,000 feet AGL
Present Weather: automated observation with no human augmentation;
there may or may not be significant weather present at this time
KINF 180355Z AUTO 00000KT 10SM CLR 25/24 A3013 RMK AO2

Conditions at: KINF observed 18 June 2018  03:35 UTC
Temperature: 26.0°C (79°F)
Dewpoint: 24.0°C (75°F) [RH = 89%]
Pressure (altimeter): 30.13 inches Hg (1020.4 mb)
Winds: calm
Visibility: 10 or more miles (16+ km)
Ceiling: at least 12,000 feet AGL
Clouds: sky clear below 12,000 feet AGL
Present Weather: automated observation with no human augmentation;
there may or may not be significant weather present at this time
KINF 180335Z AUTO 00000KT 10SM CLR 26/24 A3013 RMK AO2

Conditions at: KINF observed 18 June 2018  03:15 UTC
Temperature: 26.0°C (79°F)
Dewpoint: 25.0°C (77°F) [RH = 94%]
Pressure (altimeter): 30.14 inches Hg (1020.7 mb)
Winds: from the WSW (250 degrees) at 3 MPH (3 knots; 1.6 m/s)
Visibility: 10 or more miles (16+ km)
Ceiling: at least 12,000 feet AGL
Clouds: sky clear below 12,000 feet AGL
Present Weather: automated observation with no human augmentation;
there may or may not be significant weather present at this time
KINF 180315Z AUTO 25003KT 10SM CLR 26/25 A3014 RMK AO2

Conditions at: KINF observed 18 June 2018  02:55 UTC
Temperature: 26.0°C (79°F)
Dewpoint: 25.0°C (77°F) [RH = 94%]
Pressure (altimeter): 30.13 inches Hg (1020.4 mb)
Winds: calm
Visibility: 10 or more miles (16+ km)
Ceiling: at least 12,000 feet AGL
Clouds: sky clear below 12,000 feet AGL
Present Weather: automated observation with no human augmentation;
there may or may not be significant weather present at this time
KINF 180255Z AUTO 00000KT 10SM CLR 26/25 A3013 RMK AO2

Conditions at: KINF observed 18 June 2018  02:15 UTC
Temperature: 26.0°C (79°F)
Dewpoint: 24.0°C (75°F) [RH = 89%]
Pressure (altimeter): 30.13 inches Hg (1020.4 mb)
Winds: calm
Visibility: 10 or more miles (16+ km)
Ceiling: at least 12,000 feet AGL
Clouds: sky clear below 12,000 feet AGL
Present Weather: automated observation with no human augmentation;
there may or may not be significant weather present at this time
KINF 180215Z AUTO 00000KT 10SM CLR 26/24 A3013 RMK AO2

Conditions at: KINF observed 18 June 2018  01:55 UTC
Temperature: 26.0°C (79°F)
Dewpoint: 24.0°C (75°F) [RH = 89%]
Pressure (altimeter): 30.13 inches Hg (1020.4 mb)
Winds: calm
Visibility: 10 or more miles (16+ km)
Ceiling: at least 12,000 feet AGL
Clouds: sky clear below 12,000 feet AGL
Present Weather: automated observation with no human augmentation;
there may or may not be significant weather present at this time
KINF 180155Z AUTO 00000KT 10SM CLR 26/24 A3013 RMK AO2 LTG DSNT SW

Conditions at: KINF observed 18 June 2018  01:35 UTC
Temperature: 26.0°C (79°F)
Dewpoint: 24.0°C (75°F) [RH = 89%]
Pressure (altimeter): 30.13 inches Hg (1020.4 mb)
Winds: calm
Visibility: 10 or more miles (16+ km)
Ceiling: at least 12,000 feet AGL
Clouds: sky clear below 12,000 feet AGL
Present Weather: automated observation with no human augmentation;
there may or may not be significant weather present at this time
KINF 180135Z AUTO 00000KT 10SM CLR 26/24 A3013 RMK AO2 LTG DSNT SW

Conditions at: KINF observed 18 June 2018  01:15 UTC
Temperature: 26.0°C (79°F)
Dewpoint: 24.0°C (75°F) [RH = 89%]
Pressure (altimeter): 30.12 inches Hg (1020.1 mb)
Winds: calm
Visibility: 10 or more miles (16+ km)
Ceiling: at least 12,000 feet AGL
Clouds: sky clear below 12,000 feet AGL
Present Weather: automated observation with no human augmentation;
there may or may not be significant weather present at this time
KINF 180115Z AUTO 00000KT 10SM CLR 26/24 A3012 RMK AO2 LTG DSNT SW AND NW

Conditions at: KINF observed 18 June 2018  00:55 UTC
Temperature: 27.0°C (81°F)
Dewpoint: 24.0°C (75°F) [RH = 84%]
Pressure (altimeter): 30.12 inches Hg (1020.1 mb)
Winds: calm
Visibility: 10 or more miles (16+ km)
Ceiling: at least 12,000 feet AGL
Clouds: sky clear below 12,000 feet AGL
Present Weather: VCTS  (thunderstorm in vicinity)
KINF 180055Z AUTO 00000KT 10SM VCTS CLR 27/24 A3012 RMK AO2 LTG DSNT SW AND NW

Conditions at: KINF observed 18 June 2018  00:35 UTC
Temperature: 27.0°C (81°F)
Dewpoint: 23.0°C (73°F) [RH = 79%]
Pressure (altimeter): 30.12 inches Hg (1020.1 mb)
Winds: from the ENE (60 degrees) at 3 MPH (3 knots; 1.6 m/s)
Visibility: 10 or more miles (16+ km)
Ceiling: at least 12,000 feet AGL
Clouds: sky clear below 12,000 feet AGL
Present Weather: TS  (thunderstorm)
KINF 180035Z AUTO 06003KT 10SM TS CLR 27/23 A3012 RMK AO2 LTG DSNT SW AND W

Conditions at: KINF observed 18 June 2018  00:15 UTC
Temperature: 27.0°C (81°F)
Dewpoint: 23.0°C (73°F) [RH = 79%]
Pressure (altimeter): 30.11 inches Hg (1019.7 mb)
Winds: from the NE (50 degrees) at 5 MPH (4 knots; 2.1 m/s)
Visibility: 10 or more miles (16+ km)
Ceiling: at least 12,000 feet AGL
Clouds: sky clear below 12,000 feet AGL
Present Weather: VCTS  (thunderstorm in vicinity)
KINF 180015Z AUTO 05004KT 10SM VCTS CLR 27/23 A3011 RMK AO2 LTG DSNT SW AND W

Conditions at: KINF observed 17 June 2018  23:55 UTC
Temperature: 28.0°C (82°F)
Dewpoint: 23.0°C (73°F) [RH = 74%]
Pressure (altimeter): 30.10 inches Hg (1019.4 mb)
Winds: from the ENE (60 degrees) at 3 MPH (3 knots; 1.6 m/s)
Visibility: 10 or more miles (16+ km)
Ceiling: at least 12,000 feet AGL
Clouds: sky clear below 12,000 feet AGL
Present Weather: TS  (thunderstorm)
KINF 172355Z AUTO 06003KT 10SM TS CLR 28/23 A3010 RMK AO2 LTG DSNT SW THRU N

Conditions at: KINF observed 17 June 2018  23:35 UTC
Temperature: 28.0°C (82°F)
Dewpoint: 23.0°C (73°F) [RH = 74%]
Pressure (altimeter): 30.08 inches Hg (1018.7 mb)
Winds: from the ENE (70 degrees) at 6 MPH (5 knots; 2.6 m/s)
Visibility: 10 or more miles (16+ km)
Ceiling: at least 12,000 feet AGL
Clouds: sky clear below 12,000 feet AGL
Present Weather: automated observation with no human augmentation;
there may or may not be significant weather present at this time
KINF 172335Z AUTO 07005KT 10SM CLR 28/23 A3008 RMK AO2 LTG DSNT SW THRU NW

Conditions at: KINF observed 17 June 2018  23:15 UTC
Temperature: 29.0°C (84°F)
Dewpoint: 23.0°C (73°F) [RH = 70%]
Pressure (altimeter): 30.09 inches Hg (1019.0 mb)
Winds: from the E (90 degrees) at 8 MPH (7 knots; 3.6 m/s)
gusting to 16 MPH (14 knots; 7.3 m/s)
Visibility: 10 or more miles (16+ km)
Ceiling: at least 12,000 feet AGL
Clouds: scattered clouds at 5000 feet AGL
Present Weather: VCTS  (thunderstorm in vicinity)
KINF 172315Z AUTO 09007G14KT 060V120 10SM VCTS SCT050 29/23 A3009 RMK AO2 LTG DSNT SW THRU N

Conditions at: KINF observed 17 June 2018  22:55 UTC
Temperature: 30.0°C (86°F)
Dewpoint: 24.0°C (75°F) [RH = 70%]
Pressure (altimeter): 30.09 inches Hg (1019.0 mb)
Winds: from the E (90 degrees) at 8 MPH (7 knots; 3.6 m/s)
gusting to 18 MPH (16 knots; 8.3 m/s)
Visibility: 10 or more miles (16+ km)
Ceiling: 5000 feet AGL
Clouds: scattered clouds at 4400 feet AGL
broken clouds at 5000 feet AGL
Present Weather: automated observation with no human augmentation;
there may or may not be significant weather present at this time
KINF 172255Z AUTO 09007G16KT 10SM SCT044 BKN050 30/24 A3009 RMK AO2 LTG DSNT SW THRU N

Conditions at: KINF observed 17 June 2018  22:35 UTC
Temperature: 32.0°C (90°F)
Dewpoint: 25.0°C (77°F) [RH = 67%]
Pressure (altimeter): 30.08 inches Hg (1018.7 mb)
Winds: from the E (80 degrees) at 6 MPH (5 knots; 2.6 m/s)
Visibility: 10 or more miles (16+ km)
Ceiling: 5000 feet AGL
Clouds: scattered clouds at 4400 feet AGL
broken clouds at 5000 feet AGL
broken clouds at 6000 feet AGL
Present Weather: automated observation with no human augmentation;
there may or may not be significant weather present at this time
KINF 172235Z AUTO 08005KT 10SM SCT044 BKN050 BKN060 32/25 A3008 RMK AO2 LTG DSNT SW THRU N

Conditions at: KINF observed 17 June 2018  22:15 UTC
Temperature: 33.0°C (91°F)
Dewpoint: 22.0°C (72°F) [RH = 53%]
Pressure (altimeter): 30.06 inches Hg (1018.0 mb)
Winds: from the NE (50 degrees) at 6 MPH (5 knots; 2.6 m/s)
Visibility: 10 or more miles (16+ km)
Ceiling: at least 12,000 feet AGL
Clouds: scattered clouds at 5000 feet AGL
Present Weather: automated observation with no human augmentation;
there may or may not be significant weather present at this time
KINF 172215Z AUTO 05005KT 10SM SCT050 33/22 A3006 RMK AO2 LTG DSNT N SE AND SW

Conditions at: KINF observed 17 June 2018  21:55 UTC
Temperature: 33.0°C (91°F)
Dewpoint: 22.0°C (72°F) [RH = 53%]
Pressure (altimeter): 30.07 inches Hg (1018.4 mb)
Winds: from the ENE (60 degrees) at 6 MPH (5 knots; 2.6 m/s)
Visibility: 10 or more miles (16+ km)
Ceiling: at least 12,000 feet AGL
Clouds: sky clear below 12,000 feet AGL
Present Weather: automated observation with no human augmentation;
there may or may not be significant weather present at this time
KINF 172155Z AUTO 06005KT 10SM CLR 33/22 A3007 RMK AO2 LTG DSNT SW

Conditions at: KINF observed 17 June 2018  21:35 UTC
Temperature: 33.0°C (91°F)
Dewpoint: 22.0°C (72°F) [RH = 53%]
Pressure (altimeter): 30.08 inches Hg (1018.7 mb)
Winds: from the ENE (70 degrees) at 6 MPH (5 knots; 2.6 m/s)
Visibility: 10 or more miles (16+ km)
Ceiling: at least 12,000 feet AGL
Clouds: sky clear below 12,000 feet AGL
Present Weather: VCTS  (thunderstorm in vicinity)
KINF 172135Z AUTO 07005KT 10SM VCTS CLR 33/22 A3008 RMK AO2 LTG DSNT SW

Conditions at: KINF observed 17 June 2018  21:15 UTC
Temperature: 34.0°C (93°F)
Dewpoint: 22.0°C (72°F) [RH = 50%]
Pressure (altimeter): 30.08 inches Hg (1018.7 mb)
Winds: from the NE (50 degrees) at 7 MPH (6 knots; 3.1 m/s)
Visibility: 10 or more miles (16+ km)
Ceiling: at least 12,000 feet AGL
Clouds: sky clear below 12,000 feet AGL
Present Weather: automated observation with no human augmentation;
there may or may not be significant weather present at this time
KINF 172115Z AUTO 05006KT 10SM CLR 34/22 A3008 RMK AO2 LTG DSNT N AND E

Conditions at: KINF observed 17 June 2018  20:55 UTC
Temperature: 33.0°C (91°F)
Dewpoint: 23.0°C (73°F) [RH = 56%]
Pressure (altimeter): 30.08 inches Hg (1018.7 mb)
Winds: from the N (350 degrees) at 3 MPH (3 knots; 1.6 m/s)
Visibility: 10 or more miles (16+ km)
Ceiling: at least 12,000 feet AGL
Clouds: scattered clouds at 5000 feet AGL
scattered clouds at 6000 feet AGL
Present Weather: automated observation with no human augmentation;
there may or may not be significant weather present at this time
KINF 172055Z AUTO 35003KT 10SM SCT050 SCT060 33/23 A3008 RMK AO2 LTG DSNT N AND E

Conditions at: KINF observed 17 June 2018  20:35 UTC
Temperature: 33.0°C (91°F)
Dewpoint: 23.0°C (73°F) [RH = 56%]
Pressure (altimeter): 30.08 inches Hg (1018.7 mb)
Winds: from the NE (40 degrees) at 5 MPH (4 knots; 2.1 m/s)
Visibility: 10 or more miles (16+ km)
Ceiling: at least 12,000 feet AGL
Clouds: scattered clouds at 5000 feet AGL
scattered clouds at 6500 feet AGL
Present Weather: automated observation with no human augmentation;
there may or may not be significant weather present at this time
KINF 172035Z AUTO 04004KT 10SM SCT050 SCT065 33/23 A3008 RMK AO2 LTG DSNT E

Conditions at: KINF observed 17 June 2018  20:15 UTC
Temperature: 33.0°C (91°F)
Dewpoint: 23.0°C (73°F) [RH = 56%]
Pressure (altimeter): 30.09 inches Hg (1019.0 mb)
Winds: from the NNE (20 degrees) at 3 MPH (3 knots; 1.6 m/s)
Visibility: 10 or more miles (16+ km)
Ceiling: 4800 feet AGL
Clouds: broken clouds at 4800 feet AGL
Present Weather: automated observation with no human augmentation;
there may or may not be significant weather present at this time
KINF 172015Z AUTO 02003KT 10SM BKN048 33/23 A3009 RMK AO2

Conditions at: KINF observed 17 June 2018  19:55 UTC
Temperature: 33.0°C (91°F)
Dewpoint: 23.0°C (73°F) [RH = 56%]
Pressure (altimeter): 30.09 inches Hg (1019.0 mb)
Winds: from the E (90 degrees) at 5 MPH (4 knots; 2.1 m/s)
Visibility: 7 miles (11 km)
Ceiling: at least 12,000 feet AGL
Clouds: scattered clouds at 4800 feet AGL
scattered clouds at 5000 feet AGL
Present Weather: automated observation with no human augmentation;
there may or may not be significant weather present at this time
KINF 171955Z AUTO 09004KT 7SM SCT048 SCT050 33/23 A3009 RMK AO2 LTG DSNT NE AND E

Conditions at: KINF observed 17 June 2018  19:35 UTC
Temperature: 33.0°C (91°F)
Dewpoint: 23.0°C (73°F) [RH = 56%]
Pressure (altimeter): 30.09 inches Hg (1019.0 mb)
Winds: from the ENE (70 degrees) at 7 MPH (6 knots; 3.1 m/s)
Visibility: 10 or more miles (16+ km)
Ceiling: at least 12,000 feet AGL
Clouds: scattered clouds at 4400 feet AGL
scattered clouds at 5000 feet AGL
Present Weather: automated observation with no human augmentation;
there may or may not be significant weather present at this time
KINF 171935Z AUTO 07006KT 10SM SCT044 SCT050 33/23 A3009 RMK AO2 LTG DSNT NE

Conditions at: KINF observed 17 June 2018  19:15 UTC
Temperature: 32.0°C (90°F)
Dewpoint: 23.0°C (73°F) [RH = 59%]
Pressure (altimeter): 30.10 inches Hg (1019.4 mb)
Winds: from the NE (50 degrees) at 6 MPH (5 knots; 2.6 m/s)
Visibility: 10 or more miles (16+ km)
Ceiling: at least 12,000 feet AGL
Clouds: scattered clouds at 4400 feet AGL
scattered clouds at 5000 feet AGL
Present Weather: automated observation with no human augmentation;
there may or may not be significant weather present at this time
KINF 171915Z AUTO 05005KT 10SM SCT044 SCT050 32/23 A3010 RMK AO2 LTG DSNT NE

Conditions at: KINF observed 17 June 2018  18:55 UTC
Temperature: 33.0°C (91°F)
Dewpoint: 23.0°C (73°F) [RH = 56%]
Pressure (altimeter): 30.11 inches Hg (1019.7 mb)
Winds: calm
Visibility: 10 or more miles (16+ km)
Ceiling: at least 12,000 feet AGL
Clouds: scattered clouds at 4600 feet AGL
scattered clouds at 6000 feet AGL
scattered clouds at 7000 feet AGL
Present Weather: automated observation with no human augmentation;
there may or may not be significant weather present at this time
KINF 171855Z AUTO 00000KT 10SM SCT046 SCT060 SCT070 33/23 A3011 RMK AO2

Conditions at: KINF observed 17 June 2018  18:35 UTC
Temperature: 33.0°C (91°F)
Dewpoint: 23.0°C (73°F) [RH = 56%]
Pressure (altimeter): 30.11 inches Hg (1019.7 mb)
Winds: from the ENE (60 degrees) at 7 MPH (6 knots; 3.1 m/s)
Visibility: 10 or more miles (16+ km)
Ceiling: at least 12,000 feet AGL
Clouds: scattered clouds at 4400 feet AGL
Present Weather: automated observation with no human augmentation;
there may or may not be significant weather present at this time
KINF 171835Z AUTO 06006KT 10SM SCT044 33/23 A3011 RMK AO2

Conditions at: KINF observed 17 June 2018  18:15 UTC
Temperature: 32.0°C (90°F)
Dewpoint: 24.0°C (75°F) [RH = 63%]
Pressure (altimeter): 30.12 inches Hg (1020.1 mb)
Winds: from the ENE (60 degrees) at 6 MPH (5 knots; 2.6 m/s)
Visibility: 10 or more miles (16+ km)
Ceiling: at least 12,000 feet AGL
Clouds: scattered clouds at 4100 feet AGL
scattered clouds at 4900 feet AGL
Present Weather: automated observation with no human augmentation;
there may or may not be significant weather present at this time
KINF 171815Z AUTO 06005KT 10SM SCT041 SCT049 32/24 A3012 RMK AO2

Conditions at: KINF observed 17 June 2018  17:55 UTC
Temperature: 32.0°C (90°F)
Dewpoint: 24.0°C (75°F) [RH = 63%]
Pressure (altimeter): 30.13 inches Hg (1020.4 mb)
Winds: from the NNE (20 degrees) at 6 MPH (5 knots; 2.6 m/s)
Visibility: 7 miles (11 km)
Ceiling: at least 12,000 feet AGL
Clouds: scattered clouds at 3900 feet AGL
scattered clouds at 4900 feet AGL
scattered clouds at 6000 feet AGL
Present Weather: automated observation with no human augmentation;
there may or may not be significant weather present at this time
KINF 171755Z AUTO 02005KT 7SM SCT039 SCT049 SCT060 32/24 A3013 RMK AO2

Conditions at: KINF observed 17 June 2018  17:35 UTC
Temperature: 32.0°C (90°F)
Dewpoint: 24.0°C (75°F) [RH = 63%]
Pressure (altimeter): 30.13 inches Hg (1020.4 mb)
Winds: from the NNE (30 degrees) at 6 MPH (5 knots; 2.6 m/s)
Visibility: 10 or more miles (16+ km)
Ceiling: 6000 feet AGL
Clouds: scattered clouds at 3900 feet AGL
scattered clouds at 4700 feet AGL
broken clouds at 6000 feet AGL
Present Weather: automated observation with no human augmentation;
there may or may not be significant weather present at this time
KINF 171735Z AUTO 03005KT 10SM SCT039 SCT047 BKN060 32/24 A3013 RMK AO2

Conditions at: KINF observed 17 June 2018  17:15 UTC
Temperature: 32.0°C (90°F)
Dewpoint: 24.0°C (75°F) [RH = 63%]
Pressure (altimeter): 30.14 inches Hg (1020.7 mb)
Winds: from the ENE (70 degrees) at 3 MPH (3 knots; 1.6 m/s)
Visibility: 7 miles (11 km)
Ceiling: at least 12,000 feet AGL
Clouds: scattered clouds at 3600 feet AGL
Present Weather: automated observation with no human augmentation;
there may or may not be significant weather present at this time
KINF 171715Z AUTO 07003KT 7SM SCT036 32/24 A3014 RMK AO2

Conditions at: KINF observed 17 June 2018  16:55 UTC
Temperature: 31.0°C (88°F)
Dewpoint: 25.0°C (77°F) [RH = 71%]
Pressure (altimeter): 30.14 inches Hg (1020.7 mb)
Winds: from the NNW (330 degrees) at 5 MPH (4 knots; 2.1 m/s)
Visibility: 7 miles (11 km)
Ceiling: at least 12,000 feet AGL
Clouds: scattered clouds at 2900 feet AGL
scattered clouds at 3500 feet AGL
scattered clouds at 5500 feet AGL
Present Weather: automated observation with no human augmentation;
there may or may not be significant weather present at this time
KINF 171655Z AUTO 33004KT 7SM SCT029 SCT035 SCT055 31/25 A3014 RMK AO2

Conditions at: KINF observed 17 June 2018  16:35 UTC
Temperature: 31.0°C (88°F)
Dewpoint: 25.0°C (77°F) [RH = 71%]
Pressure (altimeter): 30.15 inches Hg (1021.1 mb)
Winds: from the ESE (110 degrees) at 3 MPH (3 knots; 1.6 m/s)
Visibility: 7 miles (11 km)
Ceiling: at least 12,000 feet AGL
Clouds: scattered clouds at 2900 feet AGL
scattered clouds at 5500 feet AGL
Present Weather: automated observation with no human augmentation;
there may or may not be significant weather present at this time
KINF 171635Z AUTO 11003KT 7SM SCT029 SCT055 31/25 A3015 RMK AO2

Conditions at: KINF observed 17 June 2018  16:15 UTC
Temperature: 30.0°C (86°F)
Dewpoint: 25.0°C (77°F) [RH = 75%]
Pressure (altimeter): 30.16 inches Hg (1021.4 mb)
Winds: calm
Visibility: 10 or more miles (16+ km)
Ceiling: at least 12,000 feet AGL
Clouds: scattered clouds at 2700 feet AGL
Present Weather: automated observation with no human augmentation;
there may or may not be significant weather present at this time
KINF 171615Z AUTO 00000KT 10SM SCT027 30/25 A3016 RMK AO2

Conditions at: KINF observed 17 June 2018  15:55 UTC
Temperature: 30.0°C (86°F)
Dewpoint: 25.0°C (77°F) [RH = 75%]
Pressure (altimeter): 30.16 inches Hg (1021.4 mb)
Winds: calm
Visibility: 10 or more miles (16+ km)
Ceiling: at least 12,000 feet AGL
Clouds: sky clear below 12,000 feet AGL
Present Weather: automated observation with no human augmentation;
there may or may not be significant weather present at this time
KINF 171555Z AUTO 00000KT 10SM CLR 30/25 A3016 RMK AO2

Conditions at: KINF observed 17 June 2018  15:35 UTC
Temperature: 29.0°C (84°F)
Dewpoint: 25.0°C (77°F) [RH = 79%]
Pressure (altimeter): 30.16 inches Hg (1021.4 mb)
Winds: from the N (10 degrees) at 5 MPH (4 knots; 2.1 m/s)
Visibility: 10 or more miles (16+ km)
Ceiling: at least 12,000 feet AGL
Clouds: sky clear below 12,000 feet AGL
Present Weather: automated observation with no human augmentation;
there may or may not be significant weather present at this time
KINF 171535Z AUTO 01004KT 10SM CLR 29/25 A3016 RMK AO2

Conditions at: KINF observed 17 June 2018  15:15 UTC
Temperature: 29.0°C (84°F)
Dewpoint: 25.0°C (77°F) [RH = 79%]
Pressure (altimeter): 30.16 inches Hg (1021.4 mb)
Winds: from the NNE (30 degrees) at 6 MPH (5 knots; 2.6 m/s)
Visibility: 10 or more miles (16+ km)
Ceiling: at least 12,000 feet AGL
Clouds: sky clear below 12,000 feet AGL
Present Weather: automated observation with no human augmentation;
there may or may not be significant weather present at this time
KINF 171515Z AUTO 03005KT 10SM CLR 29/25 A3016 RMK AO2

Conditions at: KINF observed 17 June 2018  14:55 UTC
Temperature: 29.0°C (84°F)
Dewpoint: 25.0°C (77°F) [RH = 79%]
Pressure (altimeter): 30.16 inches Hg (1021.4 mb)
Winds: from the NE (40 degrees) at 6 MPH (5 knots; 2.6 m/s)
Visibility: 10 or more miles (16+ km)
Ceiling: at least 12,000 feet AGL
Clouds: scattered clouds at 2300 feet AGL
Present Weather: automated observation with no human augmentation;
there may or may not be significant weather present at this time
KINF 171455Z AUTO 04005KT 10SM SCT023 29/25 A3016 RMK AO2

Conditions at: KINF observed 17 June 2018  14:35 UTC
Temperature: 28.0°C (82°F)
Dewpoint: 25.0°C (77°F) [RH = 84%]
Pressure (altimeter): 30.16 inches Hg (1021.4 mb)
Winds: from the NE (40 degrees) at 7 MPH (6 knots; 3.1 m/s)
Visibility: 10 or more miles (16+ km)
Ceiling: at least 12,000 feet AGL
Clouds: sky clear below 12,000 feet AGL
Present Weather: automated observation with no human augmentation;
there may or may not be significant weather present at this time
KINF 171435Z AUTO 04006KT 10SM CLR 28/25 A3016 RMK AO2

Conditions at: KINF observed 17 June 2018  14:15 UTC
Temperature: 28.0°C (82°F)
Dewpoint: 25.0°C (77°F) [RH = 84%]
Pressure (altimeter): 30.16 inches Hg (1021.4 mb)
Winds: from the NNE (30 degrees) at 7 MPH (6 knots; 3.1 m/s)
Visibility: 10 or more miles (16+ km)
Ceiling: at least 12,000 feet AGL
Clouds: sky clear below 12,000 feet AGL
Present Weather: automated observation with no human augmentation;
there may or may not be significant weather present at this time
KINF 171415Z AUTO 03006KT 10SM CLR 28/25 A3016 RMK AO2

Conditions at: KINF observed 17 June 2018  13:55 UTC
Temperature: 28.0°C (82°F)
Dewpoint: 25.0°C (77°F) [RH = 84%]
Pressure (altimeter): 30.16 inches Hg (1021.4 mb)
Winds: from the NE (50 degrees) at 3 MPH (3 knots; 1.6 m/s)
Visibility: 10 or more miles (16+ km)
Ceiling: at least 12,000 feet AGL
Clouds: sky clear below 12,000 feet AGL
Present Weather: automated observation with no human augmentation;
there may or may not be significant weather present at this time
KINF 171355Z AUTO 05003KT 10SM CLR 28/25 A3016 RMK AO2

Conditions at: KINF observed 17 June 2018  13:35 UTC
Temperature: 28.0°C (82°F)
Dewpoint: 25.0°C (77°F) [RH = 84%]
Pressure (altimeter): 30.16 inches Hg (1021.4 mb)
Winds: calm
Visibility: 10 or more miles (16+ km)
Ceiling: at least 12,000 feet AGL
Clouds: sky clear below 12,000 feet AGL
Present Weather: automated observation with no human augmentation;
there may or may not be significant weather present at this time
KINF 171335Z AUTO 00000KT 10SM CLR 28/25 A3016 RMK AO2

Conditions at: KINF observed 17 June 2018  13:15 UTC
Temperature: 26.0°C (79°F)
Dewpoint: 24.0°C (75°F) [RH = 89%]
Pressure (altimeter): 30.16 inches Hg (1021.4 mb)
Winds: calm
Visibility: 10 or more miles (16+ km)
Ceiling: at least 12,000 feet AGL
Clouds: sky clear below 12,000 feet AGL
Present Weather: automated observation with no human augmentation;
there may or may not be significant weather present at this time
KINF 171315Z AUTO 00000KT 10SM CLR 26/24 A3016 RMK AO2

Conditions at: KINF observed 17 June 2018  12:55 UTC
Temperature: 26.0°C (79°F)
Dewpoint: 25.0°C (77°F) [RH = 94%]
Pressure (altimeter): 30.15 inches Hg (1021.1 mb)
Winds: calm
Visibility: 10 or more miles (16+ km)
Ceiling: at least 12,000 feet AGL
Clouds: sky clear below 12,000 feet AGL
Present Weather: automated observation with no human augmentation;
there may or may not be significant weather present at this time
KINF 171255Z AUTO 00000KT 10SM CLR 26/25 A3015 RMK AO2

Conditions at: KINF observed 17 June 2018  12:35 UTC
Temperature: 25.0°C (77°F)
Dewpoint: 25.0°C (77°F) [RH = 100%]
Pressure (altimeter): 30.14 inches Hg (1020.7 mb)
Winds: calm
Visibility: 10 or more miles (16+ km)
Ceiling: at least 12,000 feet AGL
Clouds: sky clear below 12,000 feet AGL
Present Weather: automated observation with no human augmentation;
there may or may not be significant weather present at this time
KINF 171235Z AUTO 00000KT 10SM CLR 25/25 A3014 RMK AO2

Conditions at: KINF observed 17 June 2018  12:15 UTC
Temperature: 24.0°C (75°F)
Dewpoint: 24.0°C (75°F) [RH = 100%]
Pressure (altimeter): 30.14 inches Hg (1020.7 mb)
Winds: calm
Visibility: 10 or more miles (16+ km)
Ceiling: at least 12,000 feet AGL
Clouds: sky clear below 12,000 feet AGL
Present Weather: automated observation with no human augmentation;
there may or may not be significant weather present at this time
KINF 171215Z AUTO 00000KT 10SM CLR 24/24 A3014 RMK AO2 LTG DSNT NW

Conditions at: KINF observed 17 June 2018  11:55 UTC
Temperature: 23.0°C (73°F)
Dewpoint: 23.0°C (73°F) [RH = 100%]
Pressure (altimeter): 30.13 inches Hg (1020.4 mb)
Winds: calm
Visibility: 10 or more miles (16+ km)
Ceiling: at least 12,000 feet AGL
Clouds: sky clear below 12,000 feet AGL
Present Weather: automated observation with no human augmentation;
there may or may not be significant weather present at this time
KINF 171155Z AUTO 00000KT 10SM CLR 23/23 A3013 RMK AO2

Conditions at: KINF observed 17 June 2018  11:35 UTC
Temperature: 23.0°C (73°F)
Dewpoint: 23.0°C (73°F) [RH = 100%]
Pressure (altimeter): 30.12 inches Hg (1020.1 mb)
Winds: calm
Visibility: 10 or more miles (16+ km)
Ceiling: at least 12,000 feet AGL
Clouds: sky clear below 12,000 feet AGL
Present Weather: automated observation with no human augmentation;
there may or may not be significant weather present at this time
KINF 171135Z AUTO 00000KT 10SM CLR 23/23 A3012 RMK AO2

Conditions at: KINF observed 17 June 2018  11:15 UTC
Temperature: 23.0°C (73°F)
Dewpoint: 23.0°C (73°F) [RH = 100%]
Pressure (altimeter): 30.12 inches Hg (1020.1 mb)
Winds: calm
Visibility: 10 or more miles (16+ km)
Ceiling: at least 12,000 feet AGL
Clouds: sky clear below 12,000 feet AGL
Present Weather: automated observation with no human augmentation;
there may or may not be significant weather present at this time
KINF 171115Z AUTO 00000KT 10SM CLR 23/23 A3012 RMK AO2

Conditions at: KINF observed 17 June 2018  10:55 UTC
Temperature: 22.0°C (72°F)
Dewpoint: 22.0°C (72°F) [RH = 100%]
Pressure (altimeter): 30.11 inches Hg (1019.7 mb)
Winds: calm
Visibility: 10 or more miles (16+ km)
Ceiling: at least 12,000 feet AGL
Clouds: sky clear below 12,000 feet AGL
Present Weather: automated observation with no human augmentation;
there may or may not be significant weather present at this time
KINF 171055Z AUTO 00000KT 10SM CLR 22/22 A3011 RMK AO2

Conditions at: KINF observed 17 June 2018  10:35 UTC
Temperature: 22.0°C (72°F)
Dewpoint: 22.0°C (72°F) [RH = 100%]
Pressure (altimeter): 30.11 inches Hg (1019.7 mb)
Winds: calm
Visibility: 10 or more miles (16+ km)
Ceiling: at least 12,000 feet AGL
Clouds: sky clear below 12,000 feet AGL
Present Weather: automated observation with no human augmentation;
there may or may not be significant weather present at this time
KINF 171035Z AUTO 00000KT 10SM CLR 22/22 A3011 RMK AO2

Conditions at: KINF observed 17 June 2018  10:15 UTC
Temperature: 22.0°C (72°F)
Dewpoint: 22.0°C (72°F) [RH = 100%]
Pressure (altimeter): 30.10 inches Hg (1019.4 mb)
Winds: calm
Visibility: 10 or more miles (16+ km)
Ceiling: at least 12,000 feet AGL
Clouds: sky clear below 12,000 feet AGL
Present Weather: automated observation with no human augmentation;
there may or may not be significant weather present at this time
KINF 171015Z AUTO 00000KT 10SM CLR 22/22 A3010 RMK AO2

Conditions at: KINF observed 17 June 2018  09:55 UTC
Temperature: 22.0°C (72°F)
Dewpoint: 22.0°C (72°F) [RH = 100%]
Pressure (altimeter): 30.09 inches Hg (1019.0 mb)
Winds: calm
Visibility: 10 or more miles (16+ km)
Ceiling: at least 12,000 feet AGL
Clouds: sky clear below 12,000 feet AGL
Present Weather: automated observation with no human augmentation;
there may or may not be significant weather present at this time
KINF 170955Z AUTO 00000KT 10SM CLR 22/22 A3009 RMK AO2

Conditions at: KINF observed 17 June 2018  09:35 UTC
Temperature: 22.0°C (72°F)
Dewpoint: 22.0°C (72°F) [RH = 100%]
Pressure (altimeter): 30.09 inches Hg (1019.0 mb)
Winds: calm
Visibility: 10 or more miles (16+ km)
Ceiling: at least 12,000 feet AGL
Clouds: sky clear below 12,000 feet AGL
Present Weather: automated observation with no human augmentation;
there may or may not be significant weather present at this time
KINF 170935Z AUTO 00000KT 10SM CLR 22/22 A3009 RMK AO2

Conditions at: KINF observed 17 June 2018  09:15 UTC
Temperature: 22.0°C (72°F)
Dewpoint: 22.0°C (72°F) [RH = 100%]
Pressure (altimeter): 30.09 inches Hg (1019.0 mb)
Winds: calm
Visibility: 10 or more miles (16+ km)
Ceiling: at least 12,000 feet AGL
Clouds: sky clear below 12,000 feet AGL
Present Weather: automated observation with no human augmentation;
there may or may not be significant weather present at this time
KINF 170915Z AUTO 00000KT 10SM CLR 22/22 A3009 RMK AO2

Conditions at: KINF observed 17 June 2018  08:55 UTC
Temperature: 22.0°C (72°F)
Dewpoint: 22.0°C (72°F) [RH = 100%]
Pressure (altimeter): 30.09 inches Hg (1019.0 mb)
Winds: calm
Visibility: 10 or more miles (16+ km)
Ceiling: at least 12,000 feet AGL
Clouds: sky clear below 12,000 feet AGL
Present Weather: automated observation with no human augmentation;
there may or may not be significant weather present at this time
KINF 170855Z AUTO 00000KT 10SM CLR 22/22 A3009 RMK AO2

Conditions at: KINF observed 17 June 2018  07:55 UTC
Temperature: 22.0°C (72°F)
Dewpoint: 22.0°C (72°F) [RH = 100%]
Pressure (altimeter): 30.09 inches Hg (1019.0 mb)
Winds: calm
Visibility: 10 or more miles (16+ km)
Ceiling: at least 12,000 feet AGL
Clouds: sky clear below 12,000 feet AGL
Present Weather: automated observation with no human augmentation;
there may or may not be significant weather present at this time
KINF 170755Z AUTO 00000KT 10SM CLR 22/22 A3009 RMK AO2

Conditions at: KINF observed 17 June 2018  07:35 UTC
Temperature: 22.0°C (72°F)
Dewpoint: 22.0°C (72°F) [RH = 100%]
Pressure (altimeter): 30.10 inches Hg (1019.4 mb)
Winds: calm
Visibility: 10 or more miles (16+ km)
Ceiling: at least 12,000 feet AGL
Clouds: sky clear below 12,000 feet AGL
Present Weather: automated observation with no human augmentation;
there may or may not be significant weather present at this time
KINF 170735Z AUTO 00000KT 10SM CLR 22/22 A3010 RMK AO2

Conditions at: KINF observed 17 June 2018  07:15 UTC
Temperature: 22.0°C (72°F)
Dewpoint: 22.0°C (72°F) [RH = 100%]
Pressure (altimeter): 30.10 inches Hg (1019.4 mb)
Winds: calm
Visibility: 10 or more miles (16+ km)
Ceiling: at least 12,000 feet AGL
Clouds: sky clear below 12,000 feet AGL
Present Weather: automated observation with no human augmentation;
there may or may not be significant weather present at this time
KINF 170715Z AUTO 00000KT 10SM CLR 22/22 A3010 RMK AO2